Etusivu
METAR-TAF:

METAR-TAF

Lentoasemat :

Pine River Regional Airport

Pine River, Minnesota, Yhdysvallat

Leveyspiiri: 46-43-30N, Pituuspiiri: 094-23-01W, korkeus merenpinnasta: 395 m

Tämänhetkinen sää

Tämä raportti tehtiin 10 minuuttia sitten, kello 10.15 UTC
Tuuli 4 kn lännestä/luoteesta
Lämpötila 1°C
Kosteus 86%
Ilmanpaine 1012 hPa
Näkyvyys: 16.1 km
Hajanaisia pilviä 1600 ft:n korkeudessa
Hajonneita pilviä 2000 ft:n korkeudessa
Pilvistä 3600 ft:n korkeudessa

METAR: KPWC 171015Z AUTO 29004KT 10SM SCT016 BKN020 OVC036 01/M01 A2989 RMK AO2

Aika: 04:25 (10:25 UTC)


TAF: puuttuu

Säähavainnot ja -ennusteet yli 4000 lentoasemalta (METAR- ja TAF-raportit).

Käytössä olevat sääasemat on merkitty karttaan keltaisilla ja punaisilla pisteillä.

Aseta hiiri pisteen päälle nähdäksesi sääaseman nimen.

Klikkaa sitten nähdäksesi säähavainnot ja -ennusteet.

Kartan vaihtaminen: klikkaa mustalla rastilla varustettuja vihreitä pisteitä, niin voit zoomata sisään; viivalla varustettua vihreää pistettä, niin voit zoomata ulos tai vihreitä nuolia, niin pääset viereisille kartoille.


METAR-TAF: